Time;durP1;ratioP1;P1;durP2;ratioP2;P2;SDS_P1;SDS_P2;PMS_P1;PMS_P2;Temp;Humidity;BMP_temperature;BMP_pressure;BME280_temperature;BME280_humidity;BME280_pressure;Samples;Min_cycle;Max_cycle;Signal;HPM_P1;HPM_P2
2023/01/25 00:00:55;;;;;;;;;;;;;;;18.60;39.99;102678.10;106136;1282;61549;-83
2023/01/25 00:03:20;;;;;;;;;;;;;;;18.61;39.91;102676.84;106004;1287;61231;-83
2023/01/25 00:05:46;;;;;;;;;;;;;;;18.61;39.89;102674.34;106161;1283;61372;-84
2023/01/25 00:08:11;;;;;;;;;;;;;;;18.61;39.80;102673.62;106115;1282;61282;-83
2023/01/25 00:10:38;;;;;;;;;;;;;;;18.62;39.89;102671.45;106197;1282;61232;-83
2023/01/25 00:13:04;;;;;;;;;;;;;;;18.62;39.76;102669.14;106158;1283;61392;-83
2023/01/25 00:15:30;;;;;;;;;;;;;;;18.62;39.93;102668.61;106123;1282;74354;-84
2023/01/25 00:17:55;;;;;;;;;;;;;;;18.62;39.90;102670.38;106127;1282;61270;-83
2023/01/25 00:20:23;;;;;;;;;;;;;;;18.62;39.94;102668.41;106026;1282;61365;-83
2023/01/25 00:22:48;;;;;;;;;;;;;;;18.63;39.93;102665.20;106140;1283;61881;-83
2023/01/25 00:25:14;;;;;;;;;;;;;;;18.63;39.80;102666.44;106000;1282;61305;-84
2023/01/25 00:27:40;;;;;;;;;;;;;;;18.63;39.77;102666.95;106235;1283;61346;-83
2023/01/25 00:30:05;;;;;;;;;;;;;;;18.63;39.99;102663.02;106266;1288;61876;-83
2023/01/25 00:32:33;;;;;;;;;;;;;;;18.64;39.78;102663.20;106350;1282;61267;-84
2023/01/25 00:34:58;;;;;;;;;;;;;;;18.64;39.92;102662.64;106267;1282;72351;-83
2023/01/25 00:37:28;;;;;;;;;;;;;;;18.64;39.85;102666.03;106254;1286;61276;-83
2023/01/25 00:39:53;;;;;;;;;;;;;;;18.65;39.92;102661.55;106243;1282;61148;-83
2023/01/25 00:42:20;;;;;;;;;;;;;;;18.65;39.79;102662.80;105996;1283;61366;-83
2023/01/25 00:44:46;;;;;;;;;;;;;;;18.66;39.86;102657.06;106181;1283;61263;-84
2023/01/25 00:47:13;;;;;;;;;;;;;;;18.66;39.76;102661.52;106092;1282;61347;-84
2023/01/25 00:49:39;;;;;;;;;;;;;;;18.66;39.92;102662.05;106116;1282;61310;-83
2023/01/25 00:52:05;;;;;;;;;;;;;;;18.66;39.80;102661.52;106010;1282;61270;-83
2023/01/25 00:54:30;;;;;;;;;;;;;;;18.66;39.76;102657.58;106100;1282;61263;-83
2023/01/25 00:56:56;;;;;;;;;;;;;;;18.66;39.85;102655.64;105981;1283;59265;-83
2023/01/25 00:59:22;;;;;;;;;;;;;;;18.66;39.88;102651.53;106223;1282;60106;-83
2023/01/25 01:01:50;;;;;;;;;;;;;;;18.66;39.78;102651.17;106213;1283;59979;-83
2023/01/25 01:04:17;;;;;;;;;;;;;;;18.67;39.77;102650.08;106095;1282;61202;-84
2023/01/25 01:06:43;;;;;;;;;;;;;;;18.67;39.77;102645.61;106215;1282;73054;-83
2023/01/25 01:09:14;;;;;;;;;;;;;;;18.67;39.77;102645.44;105993;1282;74866;-83
2023/01/25 01:12:02;;;;;;;;;;;;;;;18.67;39.78;102636.88;106126;1282;61228;-83
2023/01/25 01:14:28;;;;;;;;;;;;;;;18.66;39.73;102632.44;105607;1288;61331;-84
2023/01/25 01:16:53;;;;;;;;;;;;;;;18.67;39.71;102630.09;105577;1286;61255;-84
2023/01/25 01:19:45;;;;;;;;;;;;;;;18.67;39.80;102627.77;105486;1286;61441;-84
2023/01/25 01:22:11;;;;;;;;;;;;;;;18.67;39.74;102632.77;105232;1295;61387;-83
2023/01/25 01:24:36;;;;;;;;;;;;;;;18.68;39.76;102629.73;105191;1293;61259;-84
2023/01/25 01:27:02;;;;;;;;;;;;;;;18.68;39.66;102626.13;104474;1294;1000608;-83
2023/01/25 01:29:29;;;;;;;;;;;;;;;18.68;39.78;102623.81;105114;1292;61358;-83
2023/01/25 01:31:56;;;;;;;;;;;;;;;18.69;39.74;102620.42;105241;1293;61378;-84
2023/01/25 01:34:22;;;;;;;;;;;;;;;18.69;39.90;102618.62;105243;1295;61362;-83
2023/01/25 01:36:51;;;;;;;;;;;;;;;18.70;39.68;102618.95;105235;1295;72636;-83
2023/01/25 01:39:19;;;;;;;;;;;;;;;18.69;39.69;102616.80;105119;1292;61374;-83
2023/01/25 01:41:45;;;;;;;;;;;;;;;18.70;39.62;102611.98;105224;1293;61177;-84
2023/01/25 01:44:17;;;;;;;;;;;;;;;18.70;39.64;102610.19;105170;1294;61467;-84
2023/01/25 01:46:45;;;;;;;;;;;;;;;18.70;39.70;102606.09;105061;1293;72976;-83
2023/01/25 01:49:21;;;;;;;;;;;;;;;18.71;39.65;102607.86;105119;1293;75371;-83
2023/01/25 01:51:51;;;;;;;;;;;;;;;18.71;39.73;102605.54;105348;1289;61159;-83
2023/01/25 01:54:27;;;;;;;;;;;;;;;18.71;39.67;102606.06;105434;1290;61185;-83
2023/01/25 01:56:55;;;;;;;;;;;;;;;18.71;39.80;102607.48;105350;1289;73676;-83
2023/01/25 01:59:21;;;;;;;;;;;;;;;18.71;39.83;102602.50;105702;1282;75627;-83
2023/01/25 02:01:47;;;;;;;;;;;;;;;18.71;39.65;102603.20;106118;1282;61116;-83
2023/01/25 02:04:14;;;;;;;;;;;;;;;18.72;39.61;102604.44;106135;1282;61231;-83
2023/01/25 02:06:45;;;;;;;;;;;;;;;18.72;39.58;102605.86;106143;1287;61244;-83
2023/01/25 02:09:11;;;;;;;;;;;;;;;18.73;39.68;102603.88;106235;1282;74318;-84
2023/01/25 02:11:37;;;;;;;;;;;;;;;18.73;39.57;102601.52;106011;1282;61347;-83
2023/01/25 02:14:02;;;;;;;;;;;;;;;18.73;39.55;102601.02;106217;1282;61378;-83
2023/01/25 02:16:51;;;;;;;;;;;;;;;18.72;39.65;102594.95;106012;1282;61271;-84
2023/01/25 02:19:25;;;;;;;;;;;;;;;18.73;39.67;102597.09;105576;1286;75419;-84
2023/01/25 02:21:50;;;;;;;;;;;;;;;18.73;39.64;102597.97;105722;1286;61326;-83
2023/01/25 02:24:22;;;;;;;;;;;;;;;18.73;39.74;102593.13;105556;1287;61282;-84
2023/01/25 02:26:48;;;;;;;;;;;;;;;18.74;39.60;102592.95;105605;1286;71861;-84
2023/01/25 02:29:14;;;;;;;;;;;;;;;18.74;39.64;102591.71;105476;1286;61249;-84
2023/01/25 02:31:42;;;;;;;;;;;;;;;18.74;39.58;102587.05;105710;1286;61303;-83
2023/01/25 02:34:08;;;;;;;;;;;;;;;18.75;39.64;102589.71;105508;1287;61381;-83
2023/01/25 02:36:33;;;;;;;;;;;;;;;18.75;39.60;102588.80;105495;1286;61446;-83
2023/01/25 02:39:09;;;;;;;;;;;;;;;18.75;39.60;102587.91;105561;1286;61275;-83
2023/01/25 02:41:35;;;;;;;;;;;;;;;18.75;39.50;102588.61;105600;1287;61520;-83
2023/01/25 02:44:05;;;;;;;;;;;;;;;18.76;39.65;102590.54;105609;1286;61299;-83
2023/01/25 02:46:34;;;;;;;;;;;;;;;18.77;39.67;102590.89;105604;1286;73492;-84
2023/01/25 02:49:00;;;;;;;;;;;;;;;18.77;39.59;102587.85;105745;1287;74670;-84
2023/01/25 02:51:27;;;;;;;;;;;;;;;18.78;39.45;102584.27;105550;1286;61518;-84
2023/01/25 02:53:52;;;;;;;;;;;;;;;18.78;39.57;102584.98;105634;1286;61286;-84
2023/01/25 02:56:18;;;;;;;;;;;;;;;18.78;39.59;102582.11;105903;1287;61295;-83
2023/01/25 02:58:43;;;;;;;;;;;;;;;18.78;39.52;102580.52;106203;1282;61346;-83
2023/01/25 03:01:09;;;;;;;;;;;;;;;18.79;39.40;102583.17;106145;1282;61257;-83
2023/01/25 03:03:35;;;;;;;;;;;;;;;18.79;39.62;102582.45;106038;1282;61375;-84
2023/01/25 03:06:00;;;;;;;;;;;;;;;18.79;39.57;102581.73;105991;1282;61366;-84
2023/01/25 03:08:26;;;;;;;;;;;;;;;18.79;39.56;102584.23;106124;1282;61280;-84
2023/01/25 03:10:55;;;;;;;;;;;;;;;18.79;39.42;102586.70;106124;1282;61253;-84
2023/01/25 03:13:20;;;;;;;;;;;;;;;18.79;39.48;102587.42;106139;1282;61259;-84
2023/01/25 03:15:46;;;;;;;;;;;;;;;18.79;39.61;102583.85;106148;1282;61256;-84
2023/01/25 03:18:12;;;;;;;;;;;;;;;18.79;39.50;102582.80;106120;1282;60101;-83
2023/01/25 03:20:37;;;;;;;;;;;;;;;18.79;39.40;102583.50;106113;1282;61455;-84
2023/01/25 03:23:03;;;;;;;;;;;;;;;18.80;39.63;102582.23;106148;1282;69467;-83
2023/01/25 03:25:28;;;;;;;;;;;;;;;18.79;39.47;102580.46;106004;1282;61295;-84
2023/01/25 03:27:55;;;;;;;;;;;;;;;18.80;39.46;102578.66;105988;1282;61271;-84
2023/01/25 03:30:24;;;;;;;;;;;;;;;18.80;39.58;102575.63;106130;1282;73561;-84
2023/01/25 03:32:50;;;;;;;;;;;;;;;18.81;39.32;102577.05;106163;1282;61339;-83
2023/01/25 03:35:16;;;;;;;;;;;;;;;18.80;39.37;102579.54;106211;1282;61260;-83
2023/01/25 03:37:42;;;;;;;;;;;;;;;18.81;39.48;102577.23;105997;1282;61273;-84
2023/01/25 03:40:09;;;;;;;;;;;;;;;18.81;39.38;102581.66;106110;1282;61174;-86
2023/01/25 03:42:34;;;;;;;;;;;;;;;18.81;39.38;102583.08;106131;1282;61603;-83
2023/01/25 03:45:06;;;;;;;;;;;;;;;18.82;39.34;102580.73;106157;1282;61356;-84
2023/01/25 03:47:32;;;;;;;;;;;;;;;18.82;39.30;102581.10;106215;1282;61140;-83
2023/01/25 03:49:57;;;;;;;;;;;;;;;18.81;39.41;102578.44;106101;1282;61414;-84
2023/01/25 03:52:39;;;;;;;;;;;;;;;18.82;39.40;102575.21;106129;1287;61274;-83
2023/01/25 03:55:06;;;;;;;;;;;;;;;18.83;39.32;102577.85;105957;1285;61423;-83
2023/01/25 03:57:31;;;;;;;;;;;;;;;18.82;39.43;102575.91;105860;1285;61172;-83
2023/01/25 03:59:57;;;;;;;;;;;;;;;18.82;39.31;102574.65;105845;1285;60110;-83
2023/01/25 04:02:22;;;;;;;;;;;;;;;18.83;39.35;102577.30;105869;1285;61333;-84
2023/01/25 04:04:48;;;;;;;;;;;;;;;18.83;39.32;102579.62;105739;1285;61321;-84
2023/01/25 04:07:14;;;;;;;;;;;;;;;18.83;39.39;102579.27;105891;1285;61370;-84
2023/01/25 04:09:40;;;;;;;;;;;;;;;18.84;39.18;102579.61;105999;1285;61234;-84
2023/01/25 04:12:06;;;;;;;;;;;;;;;18.84;39.31;102578.71;105796;1285;73742;-83
2023/01/25 04:14:31;;;;;;;;;;;;;;;18.84;39.29;102579.23;105798;1285;61275;-83
2023/01/25 04:16:57;;;;;;;;;;;;;;;18.84;39.36;102571.23;105967;1284;61397;-83
2023/01/25 04:19:23;;;;;;;;;;;;;;;18.84;39.22;102573.35;105902;1285;61356;-83
2023/01/25 04:21:48;;;;;;;;;;;;;;;18.84;39.32;102579.04;105848;1285;61330;-83
2023/01/25 04:24:14;;;;;;;;;;;;;;;18.84;39.23;102575.14;105816;1285;71454;-83
2023/01/25 04:26:40;;;;;;;;;;;;;;;18.84;39.29;102579.05;105943;1284;61222;-83
2023/01/25 04:29:05;;;;;;;;;;;;;;;18.85;39.25;102580.83;106014;1283;61234;-84
2023/01/25 04:31:32;;;;;;;;;;;;;;;18.85;39.30;102580.63;106032;1288;61304;-83
2023/01/25 04:33:58;;;;;;;;;;;;;;;18.85;39.37;102580.99;105944;1283;61119;-83
2023/01/25 04:36:23;;;;;;;;;;;;;;;18.86;39.37;102584.17;105962;1283;61382;-83
2023/01/25 04:38:50;;;;;;;;;;;;;;;18.85;39.32;102586.33;106072;1283;61497;-83
2023/01/25 04:41:16;;;;;;;;;;;;;;;18.86;39.46;102585.24;105868;1285;61262;-83
2023/01/25 04:43:42;;;;;;;;;;;;;;;18.86;39.23;102583.98;105863;1283;61264;-83
2023/01/25 04:46:08;;;;;;;;;;;;;;;18.86;39.14;102581.49;105998;1284;62029;-83
2023/01/25 04:48:33;;;;;;;;;;;;;;;18.87;39.26;102581.65;105882;1285;61260;-83
2023/01/25 04:51:04;;;;;;;;;;;;;;;18.86;39.23;102583.27;106111;1283;61205;-83
2023/01/25 04:53:30;;;;;;;;;;;;;;;18.87;39.20;102583.42;106018;1283;61489;-83
2023/01/25 04:55:55;;;;;;;;;;;;;;;18.87;39.26;102582.71;106086;1283;60027;-83
2023/01/25 04:58:21;;;;;;;;;;;;;;;18.87;39.20;102590.38;106041;1283;61340;-83
2023/01/25 05:00:49;;;;;;;;;;;;;;;18.87;39.22;102589.48;106089;1284;61199;-83
2023/01/25 05:03:14;;;;;;;;;;;;;;;18.88;39.16;102589.11;106043;1283;61275;-83
2023/01/25 05:05:43;;;;;;;;;;;;;;;18.88;39.10;102591.61;106010;1284;61346;-83
2023/01/25 05:08:09;;;;;;;;;;;;;;;18.87;39.09;102585.55;106017;1283;74473;-84
2023/01/25 05:10:35;;;;;;;;;;;;;;;18.87;38.87;102582.88;106104;1284;61301;-84
2023/01/25 05:13:01;;;;;;;;;;;;;;;18.87;38.87;102585.21;106034;1285;61286;-84
2023/01/25 05:15:26;;;;;;;;;;;;;;;18.87;38.73;102588.78;106105;1283;61229;-84
2023/01/25 05:17:52;;;;;;;;;;;;;;;18.87;38.68;102586.83;106177;1283;61252;-84
2023/01/25 05:20:18;;;;;;;;;;;;;;;18.87;38.60;102590.74;106320;1284;61232;-84
2023/01/25 05:22:45;;;;;;;;;;;;;;;18.87;38.58;102591.64;106038;1283;61191;-84
2023/01/25 05:26:59;;;;;;;;;;;;;;;18.86;38.53;102593.06;105873;1283;61100;-84
2023/01/25 05:27:56;;;;;;;;;;;;;;;18.87;38.43;102599.66;106043;1282;74103;-84
2023/01/25 05:30:22;;;;;;;;;;;;;;;18.85;38.60;102601.50;106170;1282;61371;-84
2023/01/25 05:32:48;;;;;;;;;;;;;;;18.83;38.13;102604.27;106242;1282;61301;-85
2023/01/25 05:35:14;;;;;;;;;;;;;;;18.77;38.11;102603.73;106095;1282;61453;-84
2023/01/25 05:37:40;;;;;;;;;;;;;;;18.70;38.06;102605.19;106080;1282;61218;-84
2023/01/25 05:40:07;;;;;;;;;;;;;;;18.65;37.78;102608.77;106121;1282;61942;-84
2023/01/25 05:42:32;;;;;;;;;;;;;;;18.58;37.74;102608.61;106136;1282;61442;-84
2023/01/25 05:44:58;;;;;;;;;;;;;;;18.53;37.54;102607.01;106112;1282;61151;-84
2023/01/25 05:47:23;;;;;;;;;;;;;;;18.47;37.46;102610.04;106122;1282;61090;-84
2023/01/25 05:49:49;;;;;;;;;;;;;;;18.42;37.26;102610.20;106206;1282;61752;-85
2023/01/25 05:52:14;;;;;;;;;;;;;;;18.37;37.21;102610.70;106348;1283;62191;-84
2023/01/25 05:54:40;;;;;;;;;;;;;;;18.33;37.09;102613.51;106309;1282;59742;-84
2023/01/25 05:57:06;;;;;;;;;;;;;;;18.29;36.91;102610.60;106221;1284;61453;-84
2023/01/25 05:59:32;;;;;;;;;;;;;;;18.24;36.80;102606.63;106187;1282;60204;-85
2023/01/25 06:01:57;;;;;;;;;;;;;;;18.21;36.70;102607.28;106106;1287;61400;-84
2023/01/25 06:04:23;;;;;;;;;;;;;;;18.16;36.62;102608.85;106147;1282;59983;-84
2023/01/25 06:06:48;;;;;;;;;;;;;;;18.12;36.59;102610.23;106136;1282;61227;-83
2023/01/25 06:09:14;;;;;;;;;;;;;;;18.09;36.64;102609.59;106167;1282;59715;-84
2023/01/25 06:11:41;;;;;;;;;;;;;;;18.08;36.53;102609.45;106262;1282;62330;-84
2023/01/25 06:14:07;;;;;;;;;;;;;;;18.07;36.63;102610.72;106499;1283;74528;-84
2023/01/25 06:16:32;;;;;;;;;;;;;;;18.07;36.48;102613.21;106593;1282;59655;-84
2023/01/25 06:18:58;;;;;;;;;;;;;;;18.07;36.52;102613.40;106579;1282;60327;-84
2023/01/25 06:21:23;;;;;;;;;;;;;;;18.06;36.42;102616.98;106758;1282;58936;-84
2023/01/25 06:23:49;;;;;;;;;;;;;;;18.05;36.28;102617.38;106449;1282;59481;-84
2023/01/25 06:26:14;;;;;;;;;;;;;;;18.04;36.12;102620.80;106646;1285;59852;-84
2023/01/25 06:28:40;;;;;;;;;;;;;;;18.03;36.23;102624.21;106459;1282;59448;-84
2023/01/25 06:31:06;;;;;;;;;;;;;;;18.02;36.11;102628.52;106227;1282;61659;-85
2023/01/25 06:33:32;;;;;;;;;;;;;;;18.00;36.08;102625.35;106257;1282;61756;-83
2023/01/25 06:35:58;;;;;;;;;;;;;;;18.00;36.16;102625.36;106210;1282;61241;-83
2023/01/25 06:38:24;;;;;;;;;;;;;;;18.01;36.13;102619.79;106087;1282;61534;-83
2023/01/25 06:40:49;;;;;;;;;;;;;;;18.05;36.02;102618.45;106167;1282;60914;-84
2023/01/25 06:43:15;;;;;;;;;;;;;;;18.09;36.19;102617.26;106207;1281;61797;-83
2023/01/25 06:45:40;;;;;;;;;;;;;;;18.14;36.02;102616.77;106164;1282;61367;-83
2023/01/25 06:48:07;;;;;;;;;;;;;;;18.19;36.02;102618.73;106110;1282;61785;-83
2023/01/25 06:50:33;;;;;;;;;;;;;;;18.24;35.97;102617.52;106222;1282;61239;-84
2023/01/25 06:52:58;;;;;;;;;;;;;;;18.29;35.87;102615.96;106179;1284;60276;-84
2023/01/25 06:55:25;;;;;;;;;;;;;;;18.30;35.85;102617.16;106093;1282;61285;-84
2023/01/25 06:57:51;;;;;;;;;;;;;;;18.26;35.80;102617.83;106198;1282;61151;-84
2023/01/25 07:00:18;;;;;;;;;;;;;;;18.20;35.84;102616.21;106247;1282;61405;-84
2023/01/25 07:02:43;;;;;;;;;;;;;;;18.12;35.67;102612.36;106090;1283;60901;-83
2023/01/25 07:05:10;;;;;;;;;;;;;;;18.07;35.85;102621.80;106140;1282;60082;-83
2023/01/25 07:07:35;;;;;;;;;;;;;;;18.05;35.84;102625.41;106202;1282;60073;-84
2023/01/25 07:10:01;;;;;;;;;;;;;;;18.07;35.90;102620.72;106239;1281;59552;-84
2023/01/25 07:12:30;;;;;;;;;;;;;;;18.09;35.85;102622.08;106239;1282;60391;-83
2023/01/25 07:14:56;;;;;;;;;;;;;;;18.15;35.87;102628.65;106270;1282;60072;-83
2023/01/25 07:17:21;;;;;;;;;;;;;;;18.20;35.98;102623.33;106050;1282;59334;-83
2023/01/25 07:19:47;;;;;;;;;;;;;;;18.26;35.88;102627.44;106243;1282;61012;-83
2023/01/25 07:22:13;;;;;;;;;;;;;;;18.31;35.89;102623.35;106160;1282;61113;-83
2023/01/25 07:24:48;;;;;;;;;;;;;;;18.37;35.91;102624.27;106145;1282;61048;-84
2023/01/25 07:27:26;;;;;;;;;;;;;;;18.43;35.94;102627.10;106024;1282;61144;-84
2023/01/25 07:29:51;;;;;;;;;;;;;;;18.48;35.91;102625.16;106278;1282;61258;-83
2023/01/25 07:32:17;;;;;;;;;;;;;;;18.52;36.14;102624.14;106157;1282;60693;-83
2023/01/25 07:34:46;;;;;;;;;;;;;;;18.57;36.03;102628.61;106267;1282;60836;-83
2023/01/25 07:37:32;;;;;;;;;;;;;;;18.64;36.05;102631.64;106314;1283;61122;-83
2023/01/25 07:40:19;;;;;;;;;;;;;;;18.69;36.15;102627.70;106270;1283;74201;-84
2023/01/25 07:42:45;;;;;;;;;;;;;;;18.73;36.22;102625.42;106269;1287;73220;-83
2023/01/25 07:45:29;;;;;;;;;;;;;;;18.78;36.20;102631.34;106321;1282;59384;-84
2023/01/25 07:47:58;;;;;;;;;;;;;;;18.81;36.14;102632.69;106109;1282;62255;-82
2023/01/25 07:50:25;;;;;;;;;;;;;;;18.84;36.27;102632.21;106142;1282;71549;-83
2023/01/25 07:52:57;;;;;;;;;;;;;;;18.87;36.23;102630.34;105967;1282;73343;-84
2023/01/25 07:55:48;;;;;;;;;;;;;;;18.86;35.98;102626.27;105859;1282;60820;-83
2023/01/25 07:58:16;;;;;;;;;;;;;;;18.82;36.04;102628.20;105999;1285;59873;-83
2023/01/25 08:00:45;;;;;;;;;;;;;;;18.79;36.32;102626.51;106074;1285;71500;-85
2023/01/25 08:03:15;;;;;;;;;;;;;;;18.69;36.14;102623.61;106502;1283;73375;-83
2023/01/25 08:06:03;;;;;;;;;;;;;;;18.59;36.04;102619.84;105962;1290;60020;-83
2023/01/25 08:08:49;;;;;;;;;;;;;;;18.53;35.90;102621.96;104762;1299;59177;-84
2023/01/25 08:11:41;;;;;;;;;;;;;;;18.48;35.80;102621.95;104659;1300;71332;-83
2023/01/25 08:14:13;;;;;;;;;;;;;;;18.44;35.78;102623.67;104797;1298;73320;-83
2023/01/25 08:17:11;;;;;;;;;;;;;;;18.44;35.80;102622.42;104596;1301;62255;-84
2023/01/25 08:19:36;;;;;;;;;;;;;;;18.47;35.72;102622.70;104739;1299;61491;-83
2023/01/25 08:22:02;;;;;;;;;;;;;;;18.51;35.65;102623.11;104846;1299;60186;-83
2023/01/25 08:24:27;;;;;;;;;;;;;;;18.56;35.70;102622.07;104727;1299;61083;-83
2023/01/25 08:26:53;;;;;;;;;;;;;;;18.61;35.80;102625.13;104792;1302;59663;-85
2023/01/25 08:29:19;;;;;;;;;;;;;;;18.65;35.82;102624.80;104839;1296;61465;-83
2023/01/25 08:31:44;;;;;;;;;;;;;;;18.70;35.77;102623.58;104947;1294;61262;-83
2023/01/25 08:34:10;;;;;;;;;;;;;;;18.73;35.72;102625.08;105055;1295;61384;-83
2023/01/25 08:36:35;;;;;;;;;;;;;;;18.77;35.78;102624.61;105039;1296;59480;-83
2023/01/25 08:39:03;;;;;;;;;;;;;;;18.80;35.85;102626.63;105018;1294;61240;-83
2023/01/25 08:41:29;;;;;;;;;;;;;;;18.83;35.77;102625.29;104916;1294;59511;-83
2023/01/25 08:43:54;;;;;;;;;;;;;;;18.86;35.95;102623.77;105195;1290;61236;-83
2023/01/25 08:46:20;;;;;;;;;;;;;;;18.88;35.85;102623.17;105751;1282;59329;-83
2023/01/25 08:48:46;;;;;;;;;;;;;;;18.92;35.70;102623.27;106157;1282;62798;-83
2023/01/25 08:51:11;;;;;;;;;;;;;;;18.95;35.78;102621.73;106042;1282;61348;-84
2023/01/25 08:53:37;;;;;;;;;;;;;;;18.97;35.67;102620.59;106104;1282;60344;-83
2023/01/25 08:56:06;;;;;;;;;;;;;;;18.99;35.68;102621.39;106161;1282;61431;-83
2023/01/25 08:58:32;;;;;;;;;;;;;;;19.01;35.81;102621.17;106129;1282;74499;-83
2023/01/25 09:01:04;;;;;;;;;;;;;;;19.03;35.66;102621.64;106093;1282;59755;-83
2023/01/25 09:03:30;;;;;;;;;;;;;;;19.04;35.64;102624.80;106084;1285;61362;-83
2023/01/25 09:05:55;;;;;;;;;;;;;;;18.89;35.20;102624.74;106246;1282;61261;-84
2023/01/25 09:08:21;;;;;;;;;;;;;;;18.69;35.48;102623.61;106037;1284;61235;-85
2023/01/25 09:10:47;;;;;;;;;;;;;;;18.49;35.36;102621.21;106172;1282;60549;-84
2023/01/25 09:13:13;;;;;;;;;;;;;;;18.33;35.40;102620.64;106084;1282;61149;-84
2023/01/25 09:15:38;;;;;;;;;;;;;;;18.30;35.61;102620.54;106176;1285;62387;-83
2023/01/25 09:18:04;;;;;;;;;;;;;;;18.30;35.41;102618.58;106075;1282;59562;-83
2023/01/25 09:20:29;;;;;;;;;;;;;;;18.34;35.64;102619.34;106073;1282;60156;-84
2023/01/25 09:22:55;;;;;;;;;;;;;;;18.39;35.44;102615.09;106084;1282;59982;-84
2023/01/25 09:25:20;;;;;;;;;;;;;;;18.44;35.44;102607.98;106083;1282;61270;-84
2023/01/25 09:27:50;;;;;;;;;;;;;;;18.50;35.44;102601.39;106054;1283;60462;-84
2023/01/25 09:30:15;;;;;;;;;;;;;;;18.57;35.44;102596.35;106183;1285;73537;-85
2023/01/25 09:32:41;;;;;;;;;;;;;;;18.64;35.49;102595.77;106193;1282;60701;-84
2023/01/25 09:35:07;;;;;;;;;;;;;;;18.70;35.32;102590.42;106066;1282;61427;-84
2023/01/25 09:37:32;;;;;;;;;;;;;;;18.74;35.60;102580.45;106229;1282;60481;-83
2023/01/25 09:39:57;;;;;;;;;;;;;;;18.78;35.53;102573.36;106137;1283;61161;-84
2023/01/25 09:42:42;;;;;;;;;;;;;;;18.81;35.68;102571.13;106039;1282;74392;-83
2023/01/25 09:45:14;;;;;;;;;;;;;;;18.86;35.68;102569.54;106193;1282;75479;-83
2023/01/25 09:47:42;;;;;;;;;;;;;;;18.90;35.66;102571.74;106223;1282;61087;-84
2023/01/25 09:50:26;;;;;;;;;;;;;;;18.93;35.72;102575.03;106177;1282;59669;-83
2023/01/25 09:52:52;;;;;;;;;;;;;;;18.96;35.74;102572.98;106192;1282;72239;-83
2023/01/25 09:55:19;;;;;;;;;;;;;;;18.98;35.64;102566.48;106328;1281;61309;-82
2023/01/25 09:57:47;;;;;;;;;;;;;;;19.00;35.63;102565.17;106132;1282;60245;-82
2023/01/25 10:00:16;;;;;;;;;;;;;;;19.01;35.55;102569.77;106307;1282;62391;-84
2023/01/25 10:03:01;;;;;;;;;;;;;;;19.01;35.37;102562.46;106317;1282;73440;-82
2023/01/25 10:05:28;;;;;;;;;;;;;;;18.93;35.29;102555.42;106026;1282;75475;-84
2023/01/25 10:07:57;;;;;;;;;;;;;;;18.76;35.27;102549.37;106342;1282;60976;-83
2023/01/25 10:10:26;;;;;;;;;;;;;;;18.54;35.14;102547.75;106383;1284;62606;-82
2023/01/25 10:12:52;;;;;;;;;;;;;;;18.34;35.20;102543.42;106348;1282;71930;-83
2023/01/25 10:15:23;;;;;;;;;;;;;;;18.17;35.33;102537.38;106311;1282;61289;-84
2023/01/25 10:18:08;;;;;;;;;;;;;;;18.10;35.36;102541.85;106319;1282;60047;-84
2023/01/25 10:20:37;;;;;;;;;;;;;;;18.10;35.43;102537.77;105957;1282;60256;-83
2023/01/25 10:23:16;;;;;;;;;;;;;;;18.12;35.40;102537.19;106382;1282;73590;-83
2023/01/25 10:25:44;;;;;;;;;;;;;;;18.15;35.34;102537.59;106398;1283;75204;-85
2023/01/25 10:28:28;;;;;;;;;;;;;;;18.23;35.38;102531.85;106428;1282;59641;-83
2023/01/25 10:30:54;;;;;;;;;;;;;;;18.32;35.26;102531.02;106344;1282;61002;-83
2023/01/25 10:33:20;;;;;;;;;;;;;;;18.40;35.10;102521.67;106302;1282;59852;-84
2023/01/25 10:35:48;;;;;;;;;;;;;;;18.46;35.14;102518.61;106105;1282;59747;-84
2023/01/25 10:38:16;;;;;;;;;;;;;;;18.54;35.09;102515.85;106240;1282;60016;-83
2023/01/25 10:40:45;;;;;;;;;;;;;;;18.58;35.24;102508.38;106296;1282;61307;-83
2023/01/25 10:43:13;;;;;;;;;;;;;;;18.58;35.28;102506.42;106223;1282;72545;-84
2023/01/25 10:45:41;;;;;;;;;;;;;;;18.56;35.04;102500.27;106366;1284;74514;-84
2023/01/25 10:48:09;;;;;;;;;;;;;;;18.55;34.96;102495.48;106376;1282;61764;-84
2023/01/25 10:50:40;;;;;;;;;;;;;;;18.53;35.13;102486.84;106512;1282;61148;-83
2023/01/25 10:53:08;;;;;;;;;;;;;;;18.47;34.95;102479.35;106404;1282;72386;-84
2023/01/25 10:55:34;;;;;;;;;;;;;;;18.45;34.70;102473.70;106267;1282;75120;-83
2023/01/25 10:58:00;;;;;;;;;;;;;;;18.42;34.69;102471.50;106246;1284;59532;-83
2023/01/25 11:00:35;;;;;;;;;;;;;;;18.39;34.83;102468.91;106184;1282;61320;-83
2023/01/25 11:03:01;;;;;;;;;;;;;;;18.33;34.66;102469.48;106308;1282;73431;-83
2023/01/25 11:05:31;;;;;;;;;;;;;;;18.07;34.21;102466.39;106388;1282;59338;-84
2023/01/25 11:07:57;;;;;;;;;;;;;;;17.74;34.20;102465.26;106365;1283;61056;-83
2023/01/25 11:10:35;;;;;;;;;;;;;;;17.50;34.30;102466.15;106288;1282;59425;-84
2023/01/25 11:13:18;;;;;;;;;;;;;;;17.33;34.29;102465.23;106294;1282;72525;-83
2023/01/25 11:15:44;;;;;;;;;;;;;;;17.37;34.51;102457.64;106470;1282;75595;-84
2023/01/25 11:18:32;;;;;;;;;;;;;;;17.48;34.50;102455.55;106179;1285;61169;-84
2023/01/25 11:21:24;;;;;;;;;;;;;;;17.60;34.51;102447.70;106599;1282;61237;-84
2023/01/25 11:23:59;;;;;;;;;;;;;;;17.75;34.48;102450.10;106411;1282;72553;-84
2023/01/25 11:26:24;;;;;;;;;;;;;;;17.81;34.28;102447.77;106454;1282;74509;-84
2023/01/25 11:28:50;;;;;;;;;;;;;;;17.83;34.45;102442.19;106291;1282;61317;-84
2023/01/25 11:31:20;;;;;;;;;;;;;;;17.86;34.13;102436.73;106178;1282;60925;-84
2023/01/25 11:33:45;;;;;;;;;;;;;;;17.90;34.00;102433.77;106270;1282;71340;-84
2023/01/25 11:36:24;;;;;;;;;;;;;;;17.92;33.92;102429.64;106347;1282;61243;-83
2023/01/25 11:39:09;;;;;;;;;;;;;;;17.95;33.89;102423.86;106053;1282;60644;-85
2023/01/25 11:41:48;;;;;;;;;;;;;;;17.96;33.91;102420.08;106345;1282;61196;-84
2023/01/25 11:44:25;;;;;;;;;;;;;;;17.96;33.79;102418.84;106340;1282;73655;-84
2023/01/25 11:47:18;;;;;;;;;;;;;;;17.95;33.49;102414.96;106722;1284;75405;-84
2023/01/25 11:50:10;;;;;;;;;;;;;;;17.91;33.51;102411.67;106880;1281;60269;-84
2023/01/25 11:52:44;;;;;;;;;;;;;;;17.91;33.53;102409.70;106390;1282;60147;-84
2023/01/25 11:55:18;;;;;;;;;;;;;;;17.90;33.44;102407.39;106448;1283;71884;-84
2023/01/25 11:58:02;;;;;;;;;;;;;;;17.90;33.46;102408.30;106375;1283;75458;-84
2023/01/25 12:00:47;;;;;;;;;;;;;;;17.89;33.34;102404.06;106309;1282;60693;-84
2023/01/25 12:03:24;;;;;;;;;;;;;;;17.86;33.25;102405.04;106392;1282;61269;-85
2023/01/25 12:06:16;;;;;;;;;;;;;;;17.77;33.08;102398.56;106446;1284;72327;-83
2023/01/25 12:08:41;;;;;;;;;;;;;;;17.69;33.33;102400.22;106387;1285;74505;-84
2023/01/25 12:11:27;;;;;;;;;;;;;;;17.71;33.76;102398.57;106464;1282;59209;-82
2023/01/25 12:14:04;;;;;;;;;;;;;;;17.72;33.83;102398.73;106542;1282;60809;-84
2023/01/25 12:16:40;;;;;;;;;;;;;;;17.73;33.61;102401.52;106498;1282;72669;-84
2023/01/25 12:19:12;;;;;;;;;;;;;;;17.72;33.62;102391.42;106505;1282;75639;-83
2023/01/25 12:21:37;;;;;;;;;;;;;;;17.72;33.49;102385.91;106504;1282;59771;-83
2023/01/25 12:24:12;;;;;;;;;;;;;;;17.69;33.46;102378.70;106377;1282;59602;-83
2023/01/25 12:26:49;;;;;;;;;;;;;;;17.69;33.32;102377.27;106424;1284;72584;-83
2023/01/25 12:29:25;;;;;;;;;;;;;;;17.71;33.31;102377.77;106509;1282;74285;-84
2023/01/25 12:31:56;;;;;;;;;;;;;;;17.74;33.53;102381.21;106491;1282;61323;-83
2023/01/25 12:34:24;;;;;;;;;;;;;;;17.78;33.81;102380.55;106663;1282;61167;-84